createdAt,value
2018-08-29T00:00:09.805Z,83.10
2018-08-29T00:02:38.943Z,83.10
2018-08-29T00:05:08.126Z,83.20
2018-08-29T00:07:42.654Z,83.10
2018-08-29T00:10:17.793Z,83.30
2018-08-29T00:12:47.651Z,83.50
2018-08-29T00:15:16.821Z,83.50
2018-08-29T00:17:45.984Z,83.60
2018-08-29T00:20:15.152Z,83.80
2018-08-29T00:22:44.630Z,84.20
2018-08-29T00:25:16.701Z,84.40
2018-08-29T00:27:45.882Z,84.60
2018-08-29T00:30:15.064Z,84.70
2018-08-29T00:32:44.244Z,84.80
2018-08-29T00:35:13.579Z,84.70
2018-08-29T00:37:42.741Z,84.70
2018-08-29T00:40:11.887Z,84.90
2018-08-29T00:42:43.838Z,84.90
2018-08-29T00:45:13.296Z,85.20
2018-08-29T00:47:42.455Z,85.50
2018-08-29T00:50:11.655Z,85.60
2018-08-29T00:52:40.802Z,85.50
2018-08-29T00:55:10.023Z,85.90
2018-08-29T00:57:39.695Z,86.10
2018-08-29T01:00:10.566Z,86.10
2018-08-29T01:02:39.743Z,86.20
2018-08-29T01:05:08.910Z,86.50
2018-08-29T01:07:38.388Z,86.90
2018-08-29T01:10:07.562Z,87.30
2018-08-29T01:12:36.746Z,86.20
2018-08-29T01:15:06.058Z,86.10
2018-08-29T01:17:35.216Z,85.90
2018-08-29T01:20:04.758Z,85.80
2018-08-29T01:22:33.895Z,86.20
2018-08-29T01:25:03.049Z,86.50
2018-08-29T01:27:32.205Z,86.80
2018-08-29T01:30:01.427Z,87.30
2018-08-29T01:32:30.538Z,87.40
2018-08-29T01:34:59.742Z,87.70
2018-08-29T01:37:29.112Z,88.90
2018-08-29T01:39:58.280Z,89.70
2018-08-29T01:42:27.498Z,89.60
2018-08-29T01:44:56.629Z,90.10
2018-08-29T01:47:26.204Z,90.10
2018-08-29T01:49:55.333Z,90.00
2018-08-29T01:52:24.524Z,90.00
2018-08-29T01:54:53.672Z,89.80
2018-08-29T01:57:22.885Z,89.90
2018-08-29T01:59:52.080Z,90.30
2018-08-29T02:02:21.218Z,90.30
2018-08-29T02:04:50.362Z,90.40
2018-08-29T02:07:19.904Z,90.50
2018-08-29T02:09:49.077Z,90.70
2018-08-29T02:12:18.533Z,90.90
2018-08-29T02:14:47.711Z,90.80
2018-08-29T02:17:16.894Z,91.00
2018-08-29T02:19:46.451Z,91.10
2018-08-29T02:22:15.624Z,91.30
2018-08-29T02:24:44.793Z,91.00
2018-08-29T02:27:13.967Z,90.90
2018-08-29T02:29:43.136Z,90.90
2018-08-29T02:32:12.293Z,91.20
2018-08-29T02:34:41.535Z,91.20
2018-08-29T02:37:10.734Z,91.50
2018-08-29T02:39:39.874Z,91.30
2018-08-29T02:42:14.226Z,91.30
2018-08-29T02:44:43.419Z,91.60
2018-08-29T02:47:12.540Z,91.50
2018-08-29T02:49:41.769Z,91.50
2018-08-29T02:52:11.287Z,91.40
2018-08-29T02:54:40.430Z,91.40
2018-08-29T02:57:09.626Z,91.40
2018-08-29T02:59:38.763Z,91.60
2018-08-29T03:02:07.898Z,91.70
2018-08-29T03:04:37.078Z,91.50
2018-08-29T03:07:06.298Z,91.60
2018-08-29T03:09:36.730Z,91.50
2018-08-29T03:12:05.892Z,92.10
2018-08-29T03:14:35.095Z,91.90
2018-08-29T03:17:04.253Z,91.90
2018-08-29T03:19:33.395Z,92.00
2018-08-29T03:22:02.626Z,91.80
2018-08-29T03:24:31.866Z,91.80
2018-08-29T03:27:01.035Z,91.70
2018-08-29T03:29:30.186Z,91.70
2018-08-29T03:31:59.386Z,91.80
2018-08-29T03:34:28.527Z,91.80
2018-08-29T03:36:57.705Z,91.80
2018-08-29T03:39:26.871Z,91.90
2018-08-29T03:41:56.004Z,92.00
2018-08-29T03:44:25.579Z,92.00
2018-08-29T03:46:54.835Z,92.00
2018-08-29T03:49:24.196Z,92.00
2018-08-29T03:51:53.306Z,92.30
2018-08-29T03:54:22.545Z,92.10
2018-08-29T03:56:51.635Z,91.90
2018-08-29T03:59:20.769Z,91.70
2018-08-29T04:01:49.974Z,91.70
2018-08-29T04:04:19.170Z,91.50
2018-08-29T04:06:48.344Z,91.40
2018-08-29T04:09:17.509Z,91.60
2018-08-29T04:11:46.749Z,92.00
2018-08-29T04:14:15.955Z,92.30
2018-08-29T04:16:45.093Z,92.30
2018-08-29T04:19:14.262Z,92.20
2018-08-29T04:21:43.456Z,92.30
2018-08-29T04:24:12.561Z,92.50
2018-08-29T04:26:41.730Z,92.60
2018-08-29T04:29:10.863Z,92.50
2018-08-29T04:31:40.023Z,92.50
2018-08-29T04:34:09.290Z,92.40
2018-08-29T04:36:38.366Z,92.50
2018-08-29T04:39:08.044Z,92.70
2018-08-29T04:41:37.220Z,92.60
2018-08-29T04:44:06.409Z,92.60
2018-08-29T04:46:35.565Z,92.70
2018-08-29T04:49:05.113Z,92.80
2018-08-29T04:51:34.278Z,93.00
2018-08-29T04:54:03.520Z,92.80
2018-08-29T04:56:32.666Z,93.00
2018-08-29T04:59:01.888Z,93.10
2018-08-29T05:01:31.439Z,93.20
2018-08-29T05:04:00.971Z,93.20
2018-08-29T05:06:30.027Z,93.20
2018-08-29T05:08:59.401Z,93.20
2018-08-29T05:11:28.556Z,93.30
2018-08-29T05:13:57.727Z,93.10
2018-08-29T05:16:26.963Z,92.50
2018-08-29T05:18:56.183Z,92.70
2018-08-29T05:21:25.465Z,92.70
2018-08-29T05:23:54.656Z,92.70
2018-08-29T05:26:23.799Z,92.60
2018-08-29T05:28:53.069Z,92.80
2018-08-29T05:31:22.219Z,93.10
2018-08-29T05:33:51.403Z,92.60
2018-08-29T05:36:20.578Z,92.60
2018-08-29T05:38:49.729Z,92.50
2018-08-29T05:41:18.879Z,92.60
2018-08-29T05:43:48.147Z,93.10
2018-08-29T05:46:17.325Z,93.10
2018-08-29T05:48:46.573Z,92.70
2018-08-29T05:51:15.908Z,92.40
2018-08-29T05:53:45.169Z,92.40
2018-08-29T05:56:15.019Z,92.00
2018-08-29T05:58:44.186Z,92.00
2018-08-29T06:01:13.389Z,92.10
2018-08-29T06:03:42.545Z,91.80
2018-08-29T06:06:11.693Z,91.90
2018-08-29T06:08:40.854Z,91.60
2018-08-29T06:11:10.023Z,91.70
2018-08-29T06:13:39.279Z,91.60
2018-08-29T06:16:08.658Z,91.60
2018-08-29T06:18:38.326Z,91.90
2018-08-29T06:21:07.443Z,91.80
2018-08-29T06:23:36.849Z,91.60
2018-08-29T06:26:05.998Z,91.40
2018-08-29T06:28:35.182Z,91.10
2018-08-29T06:31:05.053Z,91.20
2018-08-29T06:33:34.246Z,91.10
2018-08-29T06:36:03.685Z,90.90
2018-08-29T06:38:32.881Z,90.80
2018-08-29T06:41:02.059Z,90.50
2018-08-29T06:43:31.240Z,90.60
2018-08-29T06:46:00.427Z,90.30
2018-08-29T06:48:29.566Z,90.00
2018-08-29T06:50:58.725Z,89.80
2018-08-29T06:53:27.903Z,89.40
2018-08-29T06:55:57.102Z,89.40
2018-08-29T06:58:26.261Z,88.90
2018-08-29T07:00:55.528Z,88.70
2018-08-29T07:03:24.763Z,88.50
2018-08-29T07:05:54.006Z,88.00
2018-08-29T07:08:23.237Z,87.50
2018-08-29T07:10:52.426Z,88.10
2018-08-29T07:13:21.636Z,86.60
2018-08-29T07:15:50.848Z,85.90
2018-08-29T07:18:24.592Z,85.00
2018-08-29T07:20:54.829Z,82.50
2018-08-29T07:23:24.040Z,77.70
2018-08-29T07:25:53.333Z,73.50
2018-08-29T07:28:22.596Z,70.60
2018-08-29T07:30:51.808Z,70.10
2018-08-29T07:33:21.005Z,70.80
2018-08-29T07:35:50.359Z,66.50
2018-08-29T07:38:19.521Z,63.50
2018-08-29T07:40:48.706Z,61.20
2018-08-29T07:43:17.859Z,59.90
2018-08-29T07:45:46.988Z,59.00
2018-08-29T07:48:16.276Z,58.00
2018-08-29T07:50:45.581Z,58.00
2018-08-29T07:53:14.746Z,57.40
2018-08-29T07:55:44.277Z,55.40
2018-08-29T07:58:13.458Z,52.80
2018-08-29T08:00:43.015Z,49.10
2018-08-29T08:03:12.218Z,48.00
2018-08-29T08:05:41.357Z,49.50
2018-08-29T08:08:10.737Z,53.20
2018-08-29T08:10:39.845Z,53.90
2018-08-29T08:13:09.005Z,51.30
2018-08-29T08:15:38.171Z,48.00
2018-08-29T08:18:07.364Z,45.00
2018-08-29T08:20:36.541Z,44.40
2018-08-29T08:23:05.809Z,44.40
2018-08-29T08:25:35.031Z,43.40
2018-08-29T08:28:04.224Z,43.70
2018-08-29T08:30:33.529Z,44.30
2018-08-29T08:33:02.892Z,47.40
2018-08-29T08:35:32.196Z,54.00
2018-08-29T08:38:01.362Z,59.10
2018-08-29T08:40:30.617Z,63.30
2018-08-29T08:43:00.586Z,66.50
2018-08-29T08:45:29.761Z,69.00
2018-08-29T08:47:59.101Z,69.60
2018-08-29T08:50:28.248Z,70.60
2018-08-29T08:52:57.456Z,71.40
2018-08-29T08:55:26.623Z,71.80
2018-08-29T08:57:55.801Z,72.20
2018-08-29T09:00:25.049Z,72.10
2018-08-29T09:03:00.903Z,71.90
2018-08-29T09:05:30.186Z,72.90
2018-08-29T09:07:59.370Z,73.40
2018-08-29T09:10:28.550Z,73.90
2018-08-29T09:12:57.807Z,74.30
2018-08-29T09:15:26.971Z,74.10
2018-08-29T09:17:56.162Z,73.90
2018-08-29T09:20:25.385Z,73.80
2018-08-29T09:22:54.582Z,73.20
2018-08-29T09:25:23.869Z,73.20
2018-08-29T09:27:53.121Z,71.20
2018-08-29T09:30:22.307Z,71.10
2018-08-29T09:32:51.643Z,70.00
2018-08-29T09:35:20.935Z,68.60
2018-08-29T09:37:50.351Z,67.60
2018-08-29T09:40:19.622Z,66.50
2018-08-29T09:42:48.783Z,66.70
2018-08-29T09:45:18.530Z,66.10
2018-08-29T09:47:47.799Z,65.90
2018-08-29T09:50:17.078Z,66.50
2018-08-29T09:52:46.227Z,66.20
2018-08-29T09:55:15.421Z,66.00
2018-08-29T09:57:44.656Z,65.40
2018-08-29T10:00:18.077Z,64.60
2018-08-29T10:02:52.457Z,64.80
2018-08-29T10:05:21.809Z,64.40
2018-08-29T10:07:51.474Z,64.70
2018-08-29T10:13:03.799Z,64.60
2018-08-29T10:15:35.218Z,64.40
2018-08-29T10:18:04.400Z,64.60
2018-08-29T10:20:33.622Z,64.60
2018-08-29T10:23:03.956Z,65.50
2018-08-29T10:25:33.213Z,64.90
2018-08-29T10:28:02.477Z,64.90
2018-08-29T10:30:31.662Z,65.10
2018-08-29T10:33:00.847Z,63.60
2018-08-29T10:35:30.751Z,64.20
2018-08-29T10:37:59.962Z,64.20
2018-08-29T10:40:29.123Z,64.10
2018-08-29T10:42:58.337Z,64.10
2018-08-29T10:45:27.603Z,63.20
2018-08-29T10:47:56.856Z,63.50
2018-08-29T10:50:26.084Z,63.50
2018-08-29T10:52:55.379Z,63.40
2018-08-29T10:55:24.698Z,62.80
2018-08-29T10:57:53.831Z,63.10
2018-08-29T11:00:23.175Z,63.80
2018-08-29T11:02:52.892Z,63.40
2018-08-29T11:05:22.039Z,62.60
2018-08-29T11:07:51.239Z,62.00
2018-08-29T11:10:20.449Z,61.70
2018-08-29T11:12:49.743Z,61.50
2018-08-29T11:15:18.997Z,61.10
2018-08-29T11:17:48.186Z,61.10
2018-08-29T11:20:17.348Z,60.30
2018-08-29T11:22:46.533Z,59.60
2018-08-29T11:25:15.722Z,60.00
2018-08-29T11:27:44.921Z,59.40
2018-08-29T11:30:14.119Z,58.80
2018-08-29T11:32:43.282Z,59.00
2018-08-29T11:35:12.470Z,58.80
2018-08-29T11:37:41.650Z,58.30
2018-08-29T11:40:10.825Z,58.70
2018-08-29T11:42:39.983Z,58.80
2018-08-29T11:45:09.114Z,58.60
2018-08-29T11:47:38.246Z,58.70
2018-08-29T11:50:07.755Z,58.70
2018-08-29T11:52:36.951Z,59.40
2018-08-29T11:55:06.923Z,59.00
2018-08-29T11:57:36.662Z,58.60
2018-08-29T12:00:07.524Z,58.00
2018-08-29T12:02:36.708Z,57.60
2018-08-29T12:05:06.042Z,57.30
2018-08-29T12:07:35.410Z,57.30
2018-08-29T12:10:04.418Z,57.60
2018-08-29T12:12:33.638Z,58.00
2018-08-29T12:15:02.788Z,58.20
2018-08-29T12:17:31.964Z,58.10
2018-08-29T12:20:01.239Z,58.30
2018-08-29T12:22:30.428Z,58.10
2018-08-29T12:24:59.586Z,58.20
2018-08-29T12:27:28.743Z,58.10
2018-08-29T12:29:57.906Z,57.70
2018-08-29T12:32:27.076Z,57.20
2018-08-29T12:34:56.436Z,57.00
2018-08-29T12:37:25.627Z,56.60
2018-08-29T12:39:54.884Z,57.40
2018-08-29T12:42:24.174Z,56.80
2018-08-29T12:44:53.390Z,56.70
2018-08-29T12:47:22.594Z,56.40
2018-08-29T12:49:51.881Z,55.90
2018-08-29T12:52:20.973Z,56.10
2018-08-29T12:54:50.193Z,56.00
2018-08-29T12:57:19.371Z,56.30
2018-08-29T12:59:48.575Z,56.70
2018-08-29T13:02:17.799Z,57.40
2018-08-29T13:04:47.000Z,57.80
2018-08-29T13:07:16.218Z,58.10
2018-08-29T13:09:45.386Z,58.70
2018-08-29T13:12:17.561Z,58.60
2018-08-29T13:14:46.910Z,58.80
2018-08-29T13:17:16.087Z,59.00
2018-08-29T13:19:45.298Z,59.10
2018-08-29T13:22:14.574Z,59.50
2018-08-29T13:24:43.825Z,59.90
2018-08-29T13:27:13.154Z,60.30
2018-08-29T13:29:42.288Z,60.00
2018-08-29T13:32:11.498Z,60.10
2018-08-29T13:34:40.654Z,60.20
2018-08-29T13:37:09.883Z,60.40
2018-08-29T13:39:39.050Z,60.20
2018-08-29T13:42:08.421Z,60.30
2018-08-29T13:44:37.577Z,60.30
2018-08-29T13:47:06.842Z,60.50
2018-08-29T13:49:36.072Z,60.60
2018-08-29T13:52:05.234Z,60.90
2018-08-29T13:54:34.402Z,61.10
2018-08-29T13:57:03.651Z,61.20
2018-08-29T13:59:32.842Z,61.30
2018-08-29T14:02:02.002Z,61.10
2018-08-29T14:04:31.162Z,61.40
2018-08-29T14:07:00.428Z,61.60
2018-08-29T14:09:29.736Z,61.90
2018-08-29T14:11:58.899Z,62.00
2018-08-29T14:14:28.009Z,62.10
2018-08-29T14:16:57.282Z,62.30
2018-08-29T14:19:26.514Z,62.70
2018-08-29T14:21:55.677Z,63.30
2018-08-29T14:24:25.167Z,64.00
2018-08-29T14:26:54.362Z,64.30
2018-08-29T14:29:26.630Z,63.90
2018-08-29T14:31:55.777Z,64.30
2018-08-29T14:34:25.013Z,64.80
2018-08-29T14:36:54.263Z,65.00
2018-08-29T14:39:23.418Z,65.50
2018-08-29T14:41:52.611Z,66.30
2018-08-29T14:44:21.757Z,66.80
2018-08-29T14:46:50.917Z,67.50
2018-08-29T14:49:20.103Z,66.90
2018-08-29T14:51:49.284Z,66.70
2018-08-29T14:54:18.475Z,67.10
2018-08-29T14:56:47.633Z,67.30
2018-08-29T14:59:16.856Z,67.20
2018-08-29T15:02:10.394Z,67.70
2018-08-29T15:04:41.019Z,68.20
2018-08-29T15:07:11.124Z,67.80
2018-08-29T15:09:41.097Z,67.70
2018-08-29T15:12:10.961Z,67.20
2018-08-29T15:14:40.155Z,67.20
2018-08-29T15:17:09.323Z,66.80
2018-08-29T15:19:38.518Z,67.00
2018-08-29T15:22:07.737Z,67.30
2018-08-29T15:24:36.866Z,67.70
2018-08-29T15:27:06.067Z,67.80
2018-08-29T15:29:36.481Z,67.90
2018-08-29T15:32:05.777Z,67.90
2018-08-29T15:34:34.923Z,67.90
2018-08-29T15:37:04.166Z,68.20
2018-08-29T15:39:33.557Z,68.50
2018-08-29T15:42:03.051Z,68.90
2018-08-29T15:44:32.160Z,69.20
2018-08-29T15:47:01.464Z,69.70
2018-08-29T15:49:31.035Z,70.00
2018-08-29T15:52:00.193Z,69.70
2018-08-29T15:54:29.345Z,69.70
2018-08-29T15:56:58.518Z,69.50
2018-08-29T15:59:27.665Z,69.50
2018-08-29T16:01:56.867Z,69.20
2018-08-29T16:04:26.006Z,69.40
2018-08-29T16:06:55.168Z,69.20
2018-08-29T16:09:24.301Z,68.70
2018-08-29T16:11:53.513Z,68.50
2018-08-29T16:14:22.753Z,68.50
2018-08-29T16:16:51.928Z,68.80
2018-08-29T16:19:21.063Z,67.70
2018-08-29T16:21:50.242Z,68.00
2018-08-29T16:24:19.471Z,69.10
2018-08-29T16:26:48.621Z,68.30
2018-08-29T16:29:17.878Z,68.40
2018-08-29T16:31:47.054Z,68.60
2018-08-29T16:34:16.194Z,68.70
2018-08-29T16:36:45.495Z,68.60
2018-08-29T16:39:14.599Z,68.60
2018-08-29T16:41:43.883Z,68.80
2018-08-29T16:44:13.164Z,69.80
2018-08-29T16:46:42.328Z,69.30
2018-08-29T16:49:11.477Z,69.50
2018-08-29T16:51:40.724Z,70.90
2018-08-29T16:54:09.982Z,72.00
2018-08-29T16:56:39.249Z,70.60
2018-08-29T16:59:08.510Z,70.60
2018-08-29T17:01:37.744Z,70.20
2018-08-29T17:04:06.897Z,70.60
2018-08-29T17:06:36.103Z,70.60
2018-08-29T17:09:05.805Z,70.70
2018-08-29T17:11:34.968Z,70.90
2018-08-29T17:14:04.206Z,71.10
2018-08-29T17:16:33.379Z,72.30
2018-08-29T17:19:02.946Z,72.10
2018-08-29T17:21:32.101Z,72.10
2018-08-29T17:24:01.365Z,72.20
2018-08-29T17:26:30.619Z,72.20
2018-08-29T17:28:59.733Z,72.40
2018-08-29T17:31:29.089Z,72.70
2018-08-29T17:33:58.285Z,72.60
2018-08-29T17:36:27.482Z,73.00
2018-08-29T17:38:56.786Z,74.20
2018-08-29T17:41:26.410Z,74.60
2018-08-29T17:43:55.844Z,74.80
2018-08-29T17:46:25.296Z,74.60
2018-08-29T17:48:54.728Z,74.30
2018-08-29T17:51:24.294Z,74.50
2018-08-29T17:53:53.802Z,74.70
2018-08-29T17:56:24.679Z,74.30
2018-08-29T17:58:54.059Z,73.70
2018-08-29T18:01:23.536Z,73.60
2018-08-29T18:03:52.984Z,73.40
2018-08-29T18:06:22.335Z,73.20
2018-08-29T18:08:51.659Z,73.60
2018-08-29T18:11:21.560Z,72.50
2018-08-29T18:13:51.048Z,72.50
2018-08-29T18:16:20.411Z,72.40
2018-08-29T18:18:49.772Z,73.10
2018-08-29T18:21:19.112Z,72.50
2018-08-29T18:23:48.295Z,72.10
2018-08-29T18:26:17.605Z,71.90
2018-08-29T18:28:46.660Z,71.70
2018-08-29T18:31:15.819Z,72.70
2018-08-29T18:33:45.012Z,72.20
2018-08-29T18:36:14.315Z,72.10
2018-08-29T18:38:43.567Z,72.20
2018-08-29T18:41:12.778Z,72.40
2018-08-29T18:43:42.009Z,72.40
2018-08-29T18:46:11.289Z,72.70
2018-08-29T18:48:40.657Z,72.40
2018-08-29T18:51:09.926Z,73.10
2018-08-29T18:53:39.086Z,72.20
2018-08-29T18:56:08.373Z,72.00
2018-08-29T18:58:37.519Z,72.40
2018-08-29T19:01:06.761Z,72.40
2018-08-29T19:03:35.956Z,72.70
2018-08-29T19:06:05.173Z,73.00
2018-08-29T19:08:34.471Z,73.20
2018-08-29T19:11:03.621Z,73.10
2018-08-29T19:13:32.935Z,73.50
2018-08-29T19:16:02.291Z,73.50
2018-08-29T19:18:31.722Z,73.50
2018-08-29T19:21:00.934Z,73.90
2018-08-29T19:23:30.219Z,73.70
2018-08-29T19:25:59.491Z,73.40
2018-08-29T19:28:29.497Z,73.40
2018-08-29T19:30:58.653Z,73.00
2018-08-29T19:33:28.566Z,73.20
2018-08-29T19:35:57.881Z,73.20
2018-08-29T19:38:27.185Z,73.10
2018-08-29T19:40:56.406Z,73.00
2018-08-29T19:43:25.655Z,73.00
2018-08-29T19:45:54.895Z,73.00
2018-08-29T19:48:24.063Z,72.90
2018-08-29T19:50:53.483Z,72.90
2018-08-29T19:53:22.556Z,73.20
2018-08-29T19:55:51.764Z,73.40
2018-08-29T19:58:20.970Z,74.20
2018-08-29T20:00:51.128Z,73.80
2018-08-29T20:03:20.279Z,73.90
2018-08-29T20:05:49.572Z,74.30
2018-08-29T20:08:18.708Z,74.90
2018-08-29T20:10:47.888Z,74.80
2018-08-29T20:13:17.004Z,74.80
2018-08-29T20:15:46.196Z,74.80
2018-08-29T20:18:15.561Z,75.00
2018-08-29T20:20:44.838Z,74.80
2018-08-29T20:23:14.070Z,75.20
2018-08-29T20:25:43.574Z,75.90
2018-08-29T20:28:12.782Z,76.20
2018-08-29T20:30:42.055Z,77.10
2018-08-29T20:33:11.294Z,77.60
2018-08-29T20:35:40.590Z,77.70
2018-08-29T20:38:10.765Z,77.80
2018-08-29T20:40:39.930Z,78.60
2018-08-29T20:43:09.296Z,78.90
2018-08-29T20:45:38.925Z,78.90
2018-08-29T20:48:22.514Z,78.90
2018-08-29T20:50:37.280Z,79.30
2018-08-29T20:53:06.683Z,79.50
2018-08-29T20:55:35.883Z,79.60
2018-08-29T20:58:05.112Z,79.60
2018-08-29T21:00:34.417Z,80.10
2018-08-29T21:03:03.529Z,80.60
2018-08-29T21:05:32.739Z,80.70
2018-08-29T21:08:01.918Z,80.90
2018-08-29T21:10:31.348Z,81.00
2018-08-29T21:13:00.526Z,81.20
2018-08-29T21:15:29.782Z,81.30
2018-08-29T21:17:58.975Z,81.90
2018-08-29T21:20:28.221Z,81.60
2018-08-29T21:22:57.417Z,81.60
2018-08-29T21:25:26.636Z,81.80
2018-08-29T21:28:19.909Z,81.80
2018-08-29T21:31:00.970Z,82.20
2018-08-29T21:34:38.770Z,82.20
2018-08-29T21:37:23.657Z,82.20
2018-08-29T21:39:52.839Z,82.50
2018-08-29T21:42:22.000Z,82.50
2018-08-29T21:46:01.894Z,83.20
2018-08-29T21:48:46.980Z,83.10
2018-08-29T21:51:34.169Z,83.50
2018-08-29T21:56:19.806Z,84.10
2018-08-29T22:01:09.738Z,85.10
2018-08-29T22:04:48.544Z,84.80
2018-08-29T22:07:18.224Z,85.20
2018-08-29T22:09:49.132Z,85.40
2018-08-29T22:12:20.634Z,85.20
2018-08-29T22:14:49.873Z,85.70
2018-08-29T22:17:19.405Z,85.80
2018-08-29T22:19:48.585Z,86.10
2018-08-29T22:22:17.895Z,85.90
2018-08-29T22:24:47.267Z,85.70
2018-08-29T22:27:16.725Z,85.50
2018-08-29T22:29:45.956Z,85.60
2018-08-29T22:32:15.207Z,85.70
2018-08-29T22:34:44.479Z,85.70
2018-08-29T22:37:13.667Z,85.90
2018-08-29T22:39:42.863Z,86.10
2018-08-29T22:42:12.088Z,86.30
2018-08-29T22:44:42.029Z,87.20
2018-08-29T22:47:11.304Z,87.30
2018-08-29T22:49:40.438Z,88.30
2018-08-29T22:52:09.618Z,88.50
2018-08-29T22:54:38.752Z,88.20
2018-08-29T22:57:07.903Z,88.10
2018-08-29T22:59:37.067Z,88.40
2018-08-29T23:02:06.275Z,88.30
2018-08-29T23:04:35.377Z,88.50
2018-08-29T23:07:04.570Z,88.70
2018-08-29T23:09:33.808Z,88.50
2018-08-29T23:12:02.958Z,88.90
2018-08-29T23:14:33.007Z,89.10
2018-08-29T23:17:02.210Z,88.90
2018-08-29T23:19:31.367Z,88.80
2018-08-29T23:22:00.783Z,88.90
2018-08-29T23:24:29.969Z,88.90
2018-08-29T23:26:59.194Z,89.30
2018-08-29T23:29:28.338Z,89.10
2018-08-29T23:31:57.486Z,89.20
2018-08-29T23:34:26.634Z,89.60
2018-08-29T23:36:55.835Z,89.90
2018-08-29T23:39:25.084Z,89.90
2018-08-29T23:41:54.353Z,90.00
2018-08-29T23:44:23.528Z,90.30
2018-08-29T23:46:52.730Z,90.20
2018-08-29T23:49:21.905Z,90.30
2018-08-29T23:51:51.045Z,90.20
2018-08-29T23:54:20.518Z,90.20
2018-08-29T23:56:49.670Z,90.40
2018-08-29T23:59:19.056Z,90.40
